sensor_id;sensor_type;location;lat;lon;timestamp;P1;durP1;ratioP1;P2;durP2;ratioP2
29236;SDS011;16266;50.866;4.398;2023-08-12T00:00:19;516.10;;;491.40;;
29236;SDS011;16266;50.866;4.398;2023-08-12T00:02:45;444.10;;;423.10;;
29236;SDS011;16266;50.866;4.398;2023-08-12T00:05:11;388.95;;;370.77;;
29236;SDS011;16266;50.866;4.398;2023-08-12T00:07:38;359.63;;;343.55;;
29236;SDS011;16266;50.866;4.398;2023-08-12T00:10:06;313.58;;;299.75;;
29236;SDS011;16266;50.866;4.398;2023-08-12T00:12:33;279.88;;;267.77;;
29236;SDS011;16266;50.866;4.398;2023-08-12T00:15:02;218.20;;;208.52;;
29236;SDS011;16266;50.866;4.398;2023-08-12T00:17:30;209.90;;;200.93;;
29236;SDS011;16266;50.866;4.398;2023-08-12T00:19:55;188.10;;;180.38;;
29236;SDS011;16266;50.866;4.398;2023-08-12T00:22:21;172.77;;;165.63;;
29236;SDS011;16266;50.866;4.398;2023-08-12T00:24:47;170.07;;;162.90;;
29236;SDS011;16266;50.866;4.398;2023-08-12T00:27:13;168.05;;;161.07;;
29236;SDS011;16266;50.866;4.398;2023-08-12T00:29:39;161.88;;;155.18;;
29236;SDS011;16266;50.866;4.398;2023-08-12T00:32:04;160.77;;;153.85;;
29236;SDS011;16266;50.866;4.398;2023-08-12T00:34:30;173.43;;;166.07;;
29236;SDS011;16266;50.866;4.398;2023-08-12T00:36:56;161.40;;;154.65;;
29236;SDS011;16266;50.866;4.398;2023-08-12T00:39:21;183.57;;;176.00;;
29236;SDS011;16266;50.866;4.398;2023-08-12T00:41:47;194.77;;;186.75;;
29236;SDS011;16266;50.866;4.398;2023-08-12T00:44:13;197.93;;;189.80;;
29236;SDS011;16266;50.866;4.398;2023-08-12T00:46:40;211.50;;;202.68;;
29236;SDS011;16266;50.866;4.398;2023-08-12T00:49:06;208.95;;;200.32;;
29236;SDS011;16266;50.866;4.398;2023-08-12T00:51:32;220.45;;;211.40;;
29236;SDS011;16266;50.866;4.398;2023-08-12T00:53:58;218.73;;;209.77;;
29236;SDS011;16266;50.866;4.398;2023-08-12T00:56:25;223.13;;;213.88;;
29236;SDS011;16266;50.866;4.398;2023-08-12T00:58:52;212.38;;;203.63;;
29236;SDS011;16266;50.866;4.398;2023-08-12T01:01:18;217.95;;;209.13;;
29236;SDS011;16266;50.866;4.398;2023-08-12T01:03:44;201.38;;;193.02;;
29236;SDS011;16266;50.866;4.398;2023-08-12T01:06:10;194.77;;;186.68;;
29236;SDS011;16266;50.866;4.398;2023-08-12T01:08:36;199.63;;;191.32;;
29236;SDS011;16266;50.866;4.398;2023-08-12T01:11:07;285.25;;;273.38;;
29236;SDS011;16266;50.866;4.398;2023-08-12T01:13:54;389.30;;;372.33;;
29236;SDS011;16266;50.866;4.398;2023-08-12T01:16:43;544.13;;;518.30;;
29236;SDS011;16266;50.866;4.398;2023-08-12T01:19:26;1999.90;;;999.90;;
29236;SDS011;16266;50.866;4.398;2023-08-12T01:21:59;1999.90;;;999.90;;
29236;SDS011;16266;50.866;4.398;2023-08-12T01:24:26;583.45;;;554.92;;
29236;SDS011;16266;50.866;4.398;2023-08-12T01:26:58;951.05;;;678.97;;
29236;SDS011;16266;50.866;4.398;2023-08-12T01:29:24;962.28;;;689.70;;
29236;SDS011;16266;50.866;4.398;2023-08-12T01:32:12;968.08;;;695.20;;
29236;SDS011;16266;50.866;4.398;2023-08-12T01:34:57;648.78;;;616.33;;
29236;SDS011;16266;50.866;4.398;2023-08-12T01:37:32;1021.88;;;744.58;;
29236;SDS011;16266;50.866;4.398;2023-08-12T01:40:00;704.10;;;667.17;;
29236;SDS011;16266;50.866;4.398;2023-08-12T01:42:29;718.13;;;679.75;;
29236;SDS011;16266;50.866;4.398;2023-08-12T01:44:55;708.30;;;670.47;;
29236;SDS011;16266;50.866;4.398;2023-08-12T01:47:21;695.13;;;658.60;;
29236;SDS011;16266;50.866;4.398;2023-08-12T01:49:47;685.70;;;649.25;;
29236;SDS011;16266;50.866;4.398;2023-08-12T01:52:12;626.35;;;594.72;;
29236;SDS011;16266;50.866;4.398;2023-08-12T01:54:38;548.47;;;521.95;;
29236;SDS011;16266;50.866;4.398;2023-08-12T01:57:04;481.13;;;459.00;;
29236;SDS011;16266;50.866;4.398;2023-08-12T01:59:36;365.98;;;350.45;;
29236;SDS011;16266;50.866;4.398;2023-08-12T02:02:02;363.40;;;348.23;;
29236;SDS011;16266;50.866;4.398;2023-08-12T02:04:29;404.65;;;387.48;;
29236;SDS011;16266;50.866;4.398;2023-08-12T02:06:55;359.08;;;344.05;;
29236;SDS011;16266;50.866;4.398;2023-08-12T02:09:21;314.00;;;301.30;;
29236;SDS011;16266;50.866;4.398;2023-08-12T02:11:47;323.55;;;310.38;;
29236;SDS011;16266;50.866;4.398;2023-08-12T02:14:13;326.05;;;312.63;;
29236;SDS011;16266;50.866;4.398;2023-08-12T02:16:39;308.85;;;296.13;;
29236;SDS011;16266;50.866;4.398;2023-08-12T02:19:05;298.05;;;286.13;;
29236;SDS011;16266;50.866;4.398;2023-08-12T02:21:30;292.30;;;280.23;;
29236;SDS011;16266;50.866;4.398;2023-08-12T02:23:56;308.48;;;295.52;;
29236;SDS011;16266;50.866;4.398;2023-08-12T02:26:21;311.52;;;298.48;;
29236;SDS011;16266;50.866;4.398;2023-08-12T02:28:47;367.52;;;351.65;;
29236;SDS011;16266;50.866;4.398;2023-08-12T02:31:13;387.08;;;370.02;;
29236;SDS011;16266;50.866;4.398;2023-08-12T02:33:40;396.05;;;378.30;;
29236;SDS011;16266;50.866;4.398;2023-08-12T02:36:05;396.02;;;378.27;;
29236;SDS011;16266;50.866;4.398;2023-08-12T02:38:31;513.78;;;489.23;;
29236;SDS011;16266;50.866;4.398;2023-08-12T02:40:57;544.92;;;519.38;;
29236;SDS011;16266;50.866;4.398;2023-08-12T02:43:22;519.13;;;494.60;;
29236;SDS011;16266;50.866;4.398;2023-08-12T02:45:48;511.83;;;487.67;;
29236;SDS011;16266;50.866;4.398;2023-08-12T02:48:13;441.17;;;421.88;;
29236;SDS011;16266;50.866;4.398;2023-08-12T02:50:39;400.58;;;383.38;;
29236;SDS011;16266;50.866;4.398;2023-08-12T02:53:05;371.88;;;355.90;;
29236;SDS011;16266;50.866;4.398;2023-08-12T02:55:31;791.72;;;529.47;;
29236;SDS011;16266;50.866;4.398;2023-08-12T02:57:57;400.65;;;383.70;;
29236;SDS011;16266;50.866;4.398;2023-08-12T03:00:23;366.20;;;351.00;;
29236;SDS011;16266;50.866;4.398;2023-08-12T03:02:49;385.52;;;369.08;;
29236;SDS011;16266;50.866;4.398;2023-08-12T03:05:14;387.48;;;371.27;;
29236;SDS011;16266;50.866;4.398;2023-08-12T03:07:40;398.40;;;381.65;;
29236;SDS011;16266;50.866;4.398;2023-08-12T03:10:06;421.63;;;403.50;;
29236;SDS011;16266;50.866;4.398;2023-08-12T03:12:32;434.15;;;415.60;;
29236;SDS011;16266;50.866;4.398;2023-08-12T03:14:58;417.60;;;399.90;;
29236;SDS011;16266;50.866;4.398;2023-08-12T03:17:23;399.08;;;382.15;;
29236;SDS011;16266;50.866;4.398;2023-08-12T03:19:49;458.88;;;438.77;;
29236;SDS011;16266;50.866;4.398;2023-08-12T03:22:16;458.50;;;438.48;;
29236;SDS011;16266;50.866;4.398;2023-08-12T03:24:41;460.27;;;440.25;;
29236;SDS011;16266;50.866;4.398;2023-08-12T03:27:07;469.17;;;448.33;;
29236;SDS011;16266;50.866;4.398;2023-08-12T03:29:33;455.98;;;436.13;;
29236;SDS011;16266;50.866;4.398;2023-08-12T03:31:58;433.67;;;414.92;;
29236;SDS011;16266;50.866;4.398;2023-08-12T03:34:24;403.35;;;386.08;;
29236;SDS011;16266;50.866;4.398;2023-08-12T03:36:49;402.50;;;385.13;;
29236;SDS011;16266;50.866;4.398;2023-08-12T03:39:15;389.58;;;373.17;;
29236;SDS011;16266;50.866;4.398;2023-08-12T03:41:41;395.25;;;378.35;;
29236;SDS011;16266;50.866;4.398;2023-08-12T03:44:07;402.38;;;385.27;;
29236;SDS011;16266;50.866;4.398;2023-08-12T03:46:33;363.73;;;348.52;;
29236;SDS011;16266;50.866;4.398;2023-08-12T03:48:59;376.80;;;360.35;;
29236;SDS011;16266;50.866;4.398;2023-08-12T03:51:25;341.95;;;327.63;;
29236;SDS011;16266;50.866;4.398;2023-08-12T03:53:50;480.35;;;458.75;;
29236;SDS011;16266;50.866;4.398;2023-08-12T03:56:16;1001.80;;;725.35;;
29236;SDS011;16266;50.866;4.398;2023-08-12T03:58:42;664.97;;;630.45;;
29236;SDS011;16266;50.866;4.398;2023-08-12T04:01:08;614.17;;;582.28;;
29236;SDS011;16266;50.866;4.398;2023-08-12T04:03:33;598.40;;;566.95;;
29236;SDS011;16266;50.866;4.398;2023-08-12T04:05:59;582.40;;;551.92;;
29236;SDS011;16266;50.866;4.398;2023-08-12T04:08:25;549.10;;;520.30;;
29236;SDS011;16266;50.866;4.398;2023-08-12T04:10:51;519.38;;;491.98;;
29236;SDS011;16266;50.866;4.398;2023-08-12T04:13:16;1999.90;;;999.90;;
29236;SDS011;16266;50.866;4.398;2023-08-12T04:15:42;1999.90;;;999.90;;
29236;SDS011;16266;50.866;4.398;2023-08-12T04:18:13;860.72;;;592.40;;
29236;SDS011;16266;50.866;4.398;2023-08-12T04:20:38;847.80;;;580.78;;
29236;SDS011;16266;50.866;4.398;2023-08-12T04:23:04;854.72;;;587.40;;
29236;SDS011;16266;50.866;4.398;2023-08-12T04:25:30;503.10;;;479.10;;
29236;SDS011;16266;50.866;4.398;2023-08-12T04:27:55;463.20;;;442.00;;
29236;SDS011;16266;50.866;4.398;2023-08-12T04:30:21;462.40;;;441.55;;
29236;SDS011;16266;50.866;4.398;2023-08-12T04:32:47;511.20;;;487.98;;
29236;SDS011;16266;50.866;4.398;2023-08-12T04:35:12;516.22;;;492.65;;
29236;SDS011;16266;50.866;4.398;2023-08-12T04:37:38;525.63;;;501.10;;
29236;SDS011;16266;50.866;4.398;2023-08-12T04:40:04;574.03;;;546.33;;
29236;SDS011;16266;50.866;4.398;2023-08-12T04:42:30;506.13;;;482.23;;
29236;SDS011;16266;50.866;4.398;2023-08-12T04:44:56;530.80;;;505.13;;
29236;SDS011;16266;50.866;4.398;2023-08-12T04:47:22;567.47;;;539.95;;
29236;SDS011;16266;50.866;4.398;2023-08-12T04:49:47;559.78;;;532.33;;
29236;SDS011;16266;50.866;4.398;2023-08-12T04:52:13;547.60;;;521.40;;
29236;SDS011;16266;50.866;4.398;2023-08-12T04:54:39;540.05;;;514.38;;
29236;SDS011;16266;50.866;4.398;2023-08-12T04:57:04;545.63;;;519.80;;
29236;SDS011;16266;50.866;4.398;2023-08-12T04:59:30;574.45;;;546.03;;
29236;SDS011;16266;50.866;4.398;2023-08-12T05:01:56;598.58;;;568.53;;
29236;SDS011;16266;50.866;4.398;2023-08-12T05:04:22;610.80;;;579.15;;
29236;SDS011;16266;50.866;4.398;2023-08-12T05:06:47;620.83;;;587.67;;
29236;SDS011;16266;50.866;4.398;2023-08-12T05:09:13;558.53;;;530.22;;
29236;SDS011;16266;50.866;4.398;2023-08-12T05:11:39;598.47;;;566.97;;
29236;SDS011;16266;50.866;4.398;2023-08-12T05:14:05;579.75;;;548.70;;
29236;SDS011;16266;50.866;4.398;2023-08-12T05:16:31;566.53;;;536.95;;
29236;SDS011;16266;50.866;4.398;2023-08-12T05:18:56;553.38;;;524.63;;
29236;SDS011;16266;50.866;4.398;2023-08-12T05:21:22;633.65;;;598.40;;
29236;SDS011;16266;50.866;4.398;2023-08-12T05:23:48;531.50;;;503.67;;
29236;SDS011;16266;50.866;4.398;2023-08-12T05:26:14;466.75;;;444.58;;
29236;SDS011;16266;50.866;4.398;2023-08-12T05:28:39;495.63;;;471.60;;
29236;SDS011;16266;50.866;4.398;2023-08-12T05:31:05;480.80;;;457.05;;
29236;SDS011;16266;50.866;4.398;2023-08-12T05:33:30;436.17;;;415.67;;
29236;SDS011;16266;50.866;4.398;2023-08-12T05:35:56;447.35;;;425.52;;
29236;SDS011;16266;50.866;4.398;2023-08-12T05:38:22;452.05;;;430.45;;
29236;SDS011;16266;50.866;4.398;2023-08-12T05:40:48;461.73;;;440.10;;
29236;SDS011;16266;50.866;4.398;2023-08-12T05:43:13;451.83;;;430.90;;
29236;SDS011;16266;50.866;4.398;2023-08-12T05:45:39;454.90;;;433.80;;
29236;SDS011;16266;50.866;4.398;2023-08-12T05:48:05;368.52;;;351.98;;
29236;SDS011;16266;50.866;4.398;2023-08-12T05:50:30;371.40;;;355.10;;
29236;SDS011;16266;50.866;4.398;2023-08-12T05:52:56;343.33;;;328.70;;
29236;SDS011;16266;50.866;4.398;2023-08-12T05:55:21;313.85;;;300.50;;
29236;SDS011;16266;50.866;4.398;2023-08-12T05:57:47;543.75;;;480.65;;
29236;SDS011;16266;50.866;4.398;2023-08-12T06:00:13;296.48;;;284.08;;
29236;SDS011;16266;50.866;4.398;2023-08-12T06:02:39;305.88;;;293.08;;
29236;SDS011;16266;50.866;4.398;2023-08-12T06:05:04;323.88;;;310.08;;
29236;SDS011;16266;50.866;4.398;2023-08-12T06:07:30;308.55;;;295.50;;
29236;SDS011;16266;50.866;4.398;2023-08-12T06:09:56;310.73;;;297.90;;
29236;SDS011;16266;50.866;4.398;2023-08-12T06:12:22;339.95;;;325.75;;
29236;SDS011;16266;50.866;4.398;2023-08-12T06:14:47;343.58;;;329.15;;
29236;SDS011;16266;50.866;4.398;2023-08-12T06:17:13;354.90;;;339.95;;
29236;SDS011;16266;50.866;4.398;2023-08-12T06:19:38;423.38;;;404.90;;
29236;SDS011;16266;50.866;4.398;2023-08-12T06:22:05;431.00;;;411.00;;
29236;SDS011;16266;50.866;4.398;2023-08-12T06:24:30;427.67;;;408.45;;
29236;SDS011;16266;50.866;4.398;2023-08-12T06:26:56;372.10;;;355.63;;
29236;SDS011;16266;50.866;4.398;2023-08-12T06:29:22;373.48;;;356.83;;
29236;SDS011;16266;50.866;4.398;2023-08-12T06:31:47;364.38;;;347.88;;
29236;SDS011;16266;50.866;4.398;2023-08-12T06:34:13;424.75;;;405.38;;
29236;SDS011;16266;50.866;4.398;2023-08-12T06:36:39;407.15;;;389.02;;
29236;SDS011;16266;50.866;4.398;2023-08-12T06:39:04;408.90;;;389.98;;
29236;SDS011;16266;50.866;4.398;2023-08-12T06:41:30;400.15;;;381.60;;
29236;SDS011;16266;50.866;4.398;2023-08-12T06:43:56;450.10;;;428.58;;
29236;SDS011;16266;50.866;4.398;2023-08-12T06:46:21;402.55;;;383.85;;
29236;SDS011;16266;50.866;4.398;2023-08-12T06:48:47;401.13;;;382.50;;
29236;SDS011;16266;50.866;4.398;2023-08-12T06:51:13;399.98;;;381.42;;
29236;SDS011;16266;50.866;4.398;2023-08-12T06:53:39;442.75;;;421.83;;
29236;SDS011;16266;50.866;4.398;2023-08-12T06:56:05;569.70;;;541.58;;
29236;SDS011;16266;50.866;4.398;2023-08-12T06:58:30;612.47;;;582.05;;
29236;SDS011;16266;50.866;4.398;2023-08-12T07:00:56;617.40;;;586.40;;
29236;SDS011;16266;50.866;4.398;2023-08-12T07:03:24;650.83;;;616.90;;
29236;SDS011;16266;50.866;4.398;2023-08-12T07:05:50;661.33;;;626.78;;
29236;SDS011;16266;50.866;4.398;2023-08-12T07:08:15;767.80;;;723.80;;
29236;SDS011;16266;50.866;4.398;2023-08-12T07:10:41;708.40;;;670.10;;
29236;SDS011;16266;50.866;4.398;2023-08-12T07:13:07;705.08;;;666.78;;
29236;SDS011;16266;50.866;4.398;2023-08-12T07:15:32;695.58;;;658.45;;
29236;SDS011;16266;50.866;4.398;2023-08-12T07:17:58;717.00;;;677.08;;
29236;SDS011;16266;50.866;4.398;2023-08-12T07:20:24;738.38;;;697.15;;
29236;SDS011;16266;50.866;4.398;2023-08-12T07:22:50;776.97;;;731.78;;
29236;SDS011;16266;50.866;4.398;2023-08-12T07:25:16;811.60;;;761.55;;
29236;SDS011;16266;50.866;4.398;2023-08-12T07:27:42;827.25;;;775.38;;
29236;SDS011;16266;50.866;4.398;2023-08-12T07:30:07;805.03;;;755.42;;
29236;SDS011;16266;50.866;4.398;2023-08-12T07:32:34;783.40;;;736.83;;
29236;SDS011;16266;50.866;4.398;2023-08-12T07:35:01;773.65;;;728.17;;
29236;SDS011;16266;50.866;4.398;2023-08-12T07:37:27;788.95;;;741.95;;
29236;SDS011;16266;50.866;4.398;2023-08-12T07:39:53;778.05;;;733.50;;
29236;SDS011;16266;50.866;4.398;2023-08-12T07:42:19;773.35;;;728.95;;
29236;SDS011;16266;50.866;4.398;2023-08-12T07:44:45;715.10;;;675.90;;
29236;SDS011;16266;50.866;4.398;2023-08-12T07:47:11;732.35;;;691.55;;
29236;SDS011;16266;50.866;4.398;2023-08-12T07:49:37;778.92;;;733.33;;
29236;SDS011;16266;50.866;4.398;2023-08-12T07:52:03;719.58;;;680.53;;
29236;SDS011;16266;50.866;4.398;2023-08-12T07:54:29;691.85;;;654.92;;
29236;SDS011;16266;50.866;4.398;2023-08-12T07:56:54;627.03;;;594.95;;
29236;SDS011;16266;50.866;4.398;2023-08-12T07:59:20;591.42;;;561.70;;
29236;SDS011;16266;50.866;4.398;2023-08-12T08:01:46;699.83;;;662.50;;
29236;SDS011;16266;50.866;4.398;2023-08-12T08:04:11;740.75;;;698.85;;
29236;SDS011;16266;50.866;4.398;2023-08-12T08:06:37;739.47;;;697.60;;
29236;SDS011;16266;50.866;4.398;2023-08-12T08:09:03;701.40;;;662.38;;
29236;SDS011;16266;50.866;4.398;2023-08-12T08:11:29;687.63;;;649.45;;
29236;SDS011;16266;50.866;4.398;2023-08-12T08:13:57;733.15;;;691.88;;
29236;SDS011;16266;50.866;4.398;2023-08-12T08:16:23;752.70;;;710.10;;
29236;SDS011;16266;50.866;4.398;2023-08-12T08:18:49;787.08;;;740.03;;
29236;SDS011;16266;50.866;4.398;2023-08-12T08:21:15;805.75;;;756.85;;
29236;SDS011;16266;50.866;4.398;2023-08-12T08:23:41;808.97;;;759.55;;
29236;SDS011;16266;50.866;4.398;2023-08-12T08:26:07;840.20;;;786.70;;
29236;SDS011;16266;50.866;4.398;2023-08-12T08:28:33;823.20;;;771.60;;
29236;SDS011;16266;50.866;4.398;2023-08-12T08:30:59;818.97;;;766.88;;
29236;SDS011;16266;50.866;4.398;2023-08-12T08:33:25;822.72;;;770.58;;
29236;SDS011;16266;50.866;4.398;2023-08-12T08:35:51;831.97;;;777.35;;
29236;SDS011;16266;50.866;4.398;2023-08-12T08:38:17;809.78;;;757.88;;
29236;SDS011;16266;50.866;4.398;2023-08-12T08:40:43;765.05;;;718.63;;
29236;SDS011;16266;50.866;4.398;2023-08-12T08:43:08;780.78;;;732.15;;
29236;SDS011;16266;50.866;4.398;2023-08-12T08:45:35;616.05;;;580.95;;
29236;SDS011;16266;50.866;4.398;2023-08-12T08:48:02;453.45;;;429.80;;
29236;SDS011;16266;50.866;4.398;2023-08-12T08:50:30;425.77;;;405.67;;
29236;SDS011;16266;50.866;4.398;2023-08-12T08:52:56;380.77;;;363.50;;
29236;SDS011;16266;50.866;4.398;2023-08-12T08:55:22;348.13;;;333.45;;
29236;SDS011;16266;50.866;4.398;2023-08-12T08:57:48;319.90;;;306.58;;
29236;SDS011;16266;50.866;4.398;2023-08-12T09:00:15;315.30;;;302.35;;
29236;SDS011;16266;50.866;4.398;2023-08-12T09:02:43;318.65;;;305.58;;
29236;SDS011;16266;50.866;4.398;2023-08-12T09:05:14;315.52;;;302.38;;
29236;SDS011;16266;50.866;4.398;2023-08-12T09:07:41;299.27;;;287.08;;
29236;SDS011;16266;50.866;4.398;2023-08-12T09:10:09;360.42;;;344.90;;
29236;SDS011;16266;50.866;4.398;2023-08-12T09:12:36;509.48;;;483.33;;
29236;SDS011;16266;50.866;4.398;2023-08-12T09:15:02;470.52;;;446.80;;
29236;SDS011;16266;50.866;4.398;2023-08-12T09:17:29;272.50;;;261.17;;
29236;SDS011;16266;50.866;4.398;2023-08-12T09:19:57;418.02;;;399.75;;
29236;SDS011;16266;50.866;4.398;2023-08-12T09:22:24;402.30;;;384.45;;
29236;SDS011;16266;50.866;4.398;2023-08-12T09:24:55;371.33;;;355.08;;
29236;SDS011;16266;50.866;4.398;2023-08-12T09:27:22;365.80;;;349.20;;
29236;SDS011;16266;50.866;4.398;2023-08-12T09:29:47;364.85;;;348.70;;
29236;SDS011;16266;50.866;4.398;2023-08-12T09:32:14;285.15;;;273.58;;
29236;SDS011;16266;50.866;4.398;2023-08-12T09:34:51;251.80;;;241.57;;
29236;SDS011;16266;50.866;4.398;2023-08-12T09:37:22;193.40;;;185.45;;
29236;SDS011;16266;50.866;4.398;2023-08-12T09:39:49;187.75;;;180.45;;
29236;SDS011;16266;50.866;4.398;2023-08-12T09:42:16;167.10;;;160.57;;
29236;SDS011;16266;50.866;4.398;2023-08-12T09:44:43;146.80;;;141.05;;
29236;SDS011;16266;50.866;4.398;2023-08-12T09:47:09;175.07;;;168.00;;
29236;SDS011;16266;50.866;4.398;2023-08-12T09:49:35;143.20;;;137.63;;
29236;SDS011;16266;50.866;4.398;2023-08-12T09:54:32;163.93;;;157.43;;
29236;SDS011;16266;50.866;4.398;2023-08-12T09:56:59;117.35;;;112.68;;
29236;SDS011;16266;50.866;4.398;2023-08-12T09:59:32;101.45;;;97.38;;
29236;SDS011;16266;50.866;4.398;2023-08-12T10:02:00;153.80;;;147.77;;
29236;SDS011;16266;50.866;4.398;2023-08-12T10:04:43;132.18;;;127.00;;
29236;SDS011;16266;50.866;4.398;2023-08-12T10:07:11;98.75;;;94.93;;
29236;SDS011;16266;50.866;4.398;2023-08-12T10:09:39;138.52;;;133.13;;
29236;SDS011;16266;50.866;4.398;2023-08-12T10:12:07;166.48;;;160.10;;
29236;SDS011;16266;50.866;4.398;2023-08-12T10:14:34;163.73;;;157.45;;
29236;SDS011;16266;50.866;4.398;2023-08-12T10:17:00;149.90;;;144.18;;
29236;SDS011;16266;50.866;4.398;2023-08-12T10:19:27;111.40;;;107.20;;
29236;SDS011;16266;50.866;4.398;2023-08-12T10:21:55;65.63;;;63.25;;
29236;SDS011;16266;50.866;4.398;2023-08-12T10:24:24;58.28;;;56.10;;
29236;SDS011;16266;50.866;4.398;2023-08-12T10:26:52;167.38;;;160.90;;
29236;SDS011;16266;50.866;4.398;2023-08-12T10:29:19;190.52;;;183.10;;
29236;SDS011;16266;50.866;4.398;2023-08-12T10:31:46;116.13;;;111.63;;
29236;SDS011;16266;50.866;4.398;2023-08-12T10:34:19;156.23;;;150.07;;
29236;SDS011;16266;50.866;4.398;2023-08-12T10:36:53;135.77;;;130.55;;
29236;SDS011;16266;50.866;4.398;2023-08-12T10:39:24;69.68;;;67.13;;
29236;SDS011;16266;50.866;4.398;2023-08-12T10:41:51;49.85;;;47.90;;
29236;SDS011;16266;50.866;4.398;2023-08-12T10:44:19;29.88;;;28.77;;
29236;SDS011;16266;50.866;4.398;2023-08-12T10:46:50;27.33;;;26.38;;
29236;SDS011;16266;50.866;4.398;2023-08-12T10:49:17;31.42;;;30.38;;
29236;SDS011;16266;50.866;4.398;2023-08-12T10:51:45;65.15;;;62.80;;
29236;SDS011;16266;50.866;4.398;2023-08-12T11:02:18;24.92;;;24.08;;
29236;SDS011;16266;50.866;4.398;2023-08-12T11:04:54;21.08;;;20.38;;
29236;SDS011;16266;50.866;4.398;2023-08-12T11:07:28;17.13;;;16.52;;
29236;SDS011;16266;50.866;4.398;2023-08-12T11:15:17;17.42;;;16.83;;
29236;SDS011;16266;50.866;4.398;2023-08-12T11:17:45;18.75;;;18.15;;
29236;SDS011;16266;50.866;4.398;2023-08-12T11:20:12;19.70;;;19.10;;
29236;SDS011;16266;50.866;4.398;2023-08-12T11:22:41;19.08;;;18.48;;
29236;SDS011;16266;50.866;4.398;2023-08-12T11:25:09;16.40;;;15.90;;
29236;SDS011;16266;50.866;4.398;2023-08-12T11:30:08;17.58;;;17.02;;
29236;SDS011;16266;50.866;4.398;2023-08-12T11:32:35;19.10;;;18.40;;
29236;SDS011;16266;50.866;4.398;2023-08-12T11:35:03;18.95;;;18.35;;
29236;SDS011;16266;50.866;4.398;2023-08-12T11:37:30;20.55;;;19.85;;
29236;SDS011;16266;50.866;4.398;2023-08-12T11:39:56;19.58;;;18.98;;
29236;SDS011;16266;50.866;4.398;2023-08-12T11:42:22;18.63;;;18.02;;
29236;SDS011;16266;50.866;4.398;2023-08-12T11:44:49;17.92;;;17.33;;
29236;SDS011;16266;50.866;4.398;2023-08-12T11:47:15;19.67;;;18.92;;
29236;SDS011;16266;50.866;4.398;2023-08-12T11:49:41;18.30;;;17.70;;
29236;SDS011;16266;50.866;4.398;2023-08-12T11:52:08;20.77;;;20.08;;
29236;SDS011;16266;50.866;4.398;2023-08-12T11:54:35;18.13;;;17.53;;
29236;SDS011;16266;50.866;4.398;2023-08-12T11:57:01;20.80;;;20.00;;
29236;SDS011;16266;50.866;4.398;2023-08-12T11:59:27;19.23;;;18.63;;
29236;SDS011;16266;50.866;4.398;2023-08-12T12:01:54;19.48;;;18.55;;
29236;SDS011;16266;50.866;4.398;2023-08-12T12:04:20;18.77;;;18.10;;
29236;SDS011;16266;50.866;4.398;2023-08-12T12:06:46;18.77;;;18.17;;
29236;SDS011;16266;50.866;4.398;2023-08-12T12:09:13;17.20;;;16.60;;
29236;SDS011;16266;50.866;4.398;2023-08-12T12:11:39;17.38;;;16.80;;
29236;SDS011;16266;50.866;4.398;2023-08-12T12:14:08;17.77;;;16.90;;
29236;SDS011;16266;50.866;4.398;2023-08-12T12:16:39;17.55;;;16.85;;
29236;SDS011;16266;50.866;4.398;2023-08-12T12:21:46;19.20;;;18.50;;
29236;SDS011;16266;50.866;4.398;2023-08-12T12:24:13;17.23;;;16.63;;
29236;SDS011;16266;50.866;4.398;2023-08-12T12:26:39;19.60;;;18.90;;
29236;SDS011;16266;50.866;4.398;2023-08-12T12:29:05;19.25;;;18.50;;
29236;SDS011;16266;50.866;4.398;2023-08-12T12:31:31;17.30;;;16.70;;
29236;SDS011;16266;50.866;4.398;2023-08-12T12:36:42;18.33;;;17.73;;
29236;SDS011;16266;50.866;4.398;2023-08-12T12:39:07;17.27;;;16.77;;
29236;SDS011;16266;50.866;4.398;2023-08-12T12:41:33;20.17;;;19.55;;
29236;SDS011;16266;50.866;4.398;2023-08-12T12:43:59;21.80;;;21.00;;
29236;SDS011;16266;50.866;4.398;2023-08-12T12:46:29;18.45;;;17.85;;
29236;SDS011;16266;50.866;4.398;2023-08-12T12:48:55;17.48;;;16.73;;
29236;SDS011;16266;50.866;4.398;2023-08-12T12:51:20;16.10;;;15.60;;
29236;SDS011;16266;50.866;4.398;2023-08-12T12:53:46;15.80;;;15.30;;
29236;SDS011;16266;50.866;4.398;2023-08-12T12:56:12;16.27;;;15.73;;
29236;SDS011;16266;50.866;4.398;2023-08-12T12:58:38;31.40;;;30.35;;
29236;SDS011;16266;50.866;4.398;2023-08-12T13:01:05;24.98;;;24.08;;
29236;SDS011;16266;50.866;4.398;2023-08-12T13:03:30;27.08;;;26.17;;
29236;SDS011;16266;50.866;4.398;2023-08-12T13:05:56;19.80;;;19.10;;
29236;SDS011;16266;50.866;4.398;2023-08-12T13:08:22;26.60;;;25.30;;
29236;SDS011;16266;50.866;4.398;2023-08-12T13:10:48;19.50;;;18.90;;
29236;SDS011;16266;50.866;4.398;2023-08-12T13:13:14;17.92;;;17.33;;
29236;SDS011;16266;50.866;4.398;2023-08-12T13:15:42;21.95;;;21.20;;
29236;SDS011;16266;50.866;4.398;2023-08-12T13:18:08;30.35;;;29.15;;
29236;SDS011;16266;50.866;4.398;2023-08-12T13:20:34;32.40;;;31.27;;
29236;SDS011;16266;50.866;4.398;2023-08-12T13:23:01;27.10;;;26.20;;
29236;SDS011;16266;50.866;4.398;2023-08-12T13:25:31;28.95;;;27.63;;
29236;SDS011;16266;50.866;4.398;2023-08-12T13:27:58;20.45;;;19.77;;
29236;SDS011;16266;50.866;4.398;2023-08-12T13:30:24;18.10;;;17.38;;
29236;SDS011;16266;50.866;4.398;2023-08-12T13:32:50;15.30;;;14.73;;
29236;SDS011;16266;50.866;4.398;2023-08-12T13:35:16;16.92;;;16.33;;
29236;SDS011;16266;50.866;4.398;2023-08-12T13:37:42;19.10;;;18.40;;
29236;SDS011;16266;50.866;4.398;2023-08-12T13:40:09;15.82;;;15.23;;
29236;SDS011;16266;50.866;4.398;2023-08-12T13:42:36;15.77;;;15.18;;
29236;SDS011;16266;50.866;4.398;2023-08-12T13:45:02;16.77;;;16.27;;
29236;SDS011;16266;50.866;4.398;2023-08-12T13:47:28;17.83;;;17.23;;
29236;SDS011;16266;50.866;4.398;2023-08-12T13:49:55;18.92;;;18.23;;
29236;SDS011;16266;50.866;4.398;2023-08-12T13:52:21;16.38;;;15.88;;
29236;SDS011;16266;50.866;4.398;2023-08-12T13:54:46;19.05;;;18.13;;
29236;SDS011;16266;50.866;4.398;2023-08-12T13:57:12;20.00;;;19.27;;
29236;SDS011;16266;50.866;4.398;2023-08-12T13:59:37;19.48;;;18.80;;
29236;SDS011;16266;50.866;4.398;2023-08-12T14:02:05;20.90;;;20.08;;
29236;SDS011;16266;50.866;4.398;2023-08-12T14:04:31;23.20;;;22.40;;
29236;SDS011;16266;50.866;4.398;2023-08-12T14:06:57;21.10;;;20.35;;
29236;SDS011;16266;50.866;4.398;2023-08-12T14:09:22;20.05;;;19.35;;
29236;SDS011;16266;50.866;4.398;2023-08-12T14:11:48;22.52;;;21.63;;
29236;SDS011;16266;50.866;4.398;2023-08-12T14:14:14;19.50;;;18.85;;
29236;SDS011;16266;50.866;4.398;2023-08-12T14:16:39;17.65;;;17.05;;
29236;SDS011;16266;50.866;4.398;2023-08-12T14:19:05;17.88;;;17.17;;
29236;SDS011;16266;50.866;4.398;2023-08-12T14:21:31;17.90;;;17.30;;
29236;SDS011;16266;50.866;4.398;2023-08-12T14:23:56;19.00;;;18.40;;